sensor_id;sensor_type;location;lat;lon;timestamp;temperature;humidity
64951;DHT22;51482;47.014;7.652;2023-02-01T00:01:34;2.80;99.90
64951;DHT22;51482;47.014;7.652;2023-02-01T00:03:59;3.20;99.90
64951;DHT22;51482;47.014;7.652;2023-02-01T00:06:25;3.30;99.90
64951;DHT22;51482;47.014;7.652;2023-02-01T00:08:54;3.00;99.90
64951;DHT22;51482;47.014;7.652;2023-02-01T00:11:20;3.10;99.90
64951;DHT22;51482;47.014;7.652;2023-02-01T00:13:46;3.00;99.90
64951;DHT22;51482;47.014;7.652;2023-02-01T00:16:12;3.10;99.90
64951;DHT22;51482;47.014;7.652;2023-02-01T00:18:40;2.80;99.90
64951;DHT22;51482;47.014;7.652;2023-02-01T00:21:06;3.20;99.90
64951;DHT22;51482;47.014;7.652;2023-02-01T00:23:33;3.10;99.90
64951;DHT22;51482;47.014;7.652;2023-02-01T00:26:04;2.60;99.90
64951;DHT22;51482;47.014;7.652;2023-02-01T00:28:30;3.10;99.90
64951;DHT22;51482;47.014;7.652;2023-02-01T00:30:59;2.40;99.90
64951;DHT22;51482;47.014;7.652;2023-02-01T00:33:25;2.70;99.90
64951;DHT22;51482;47.014;7.652;2023-02-01T00:35:51;2.70;99.90
64951;DHT22;51482;47.014;7.652;2023-02-01T00:38:16;2.80;99.90
64951;DHT22;51482;47.014;7.652;2023-02-01T00:40:42;2.80;99.90
64951;DHT22;51482;47.014;7.652;2023-02-01T00:43:07;2.60;99.90
64951;DHT22;51482;47.014;7.652;2023-02-01T00:45:33;2.70;99.90
64951;DHT22;51482;47.014;7.652;2023-02-01T00:47:58;2.20;99.90
64951;DHT22;51482;47.014;7.652;2023-02-01T00:50:24;2.00;99.90
64951;DHT22;51482;47.014;7.652;2023-02-01T00:52:50;2.50;99.90
64951;DHT22;51482;47.014;7.652;2023-02-01T00:55:15;2.00;99.90
64951;DHT22;51482;47.014;7.652;2023-02-01T00:57:41;2.00;99.90
64951;DHT22;51482;47.014;7.652;2023-02-01T01:00:07;2.50;99.90
64951;DHT22;51482;47.014;7.652;2023-02-01T01:02:33;2.00;99.90
64951;DHT22;51482;47.014;7.652;2023-02-01T01:04:58;2.20;99.90
64951;DHT22;51482;47.014;7.652;2023-02-01T01:07:24;1.90;99.90
64951;DHT22;51482;47.014;7.652;2023-02-01T01:09:50;2.50;99.90
64951;DHT22;51482;47.014;7.652;2023-02-01T01:12:15;2.40;99.90
64951;DHT22;51482;47.014;7.652;2023-02-01T01:14:41;1.90;99.90
64951;DHT22;51482;47.014;7.652;2023-02-01T01:17:06;2.00;99.90
64951;DHT22;51482;47.014;7.652;2023-02-01T01:19:32;2.40;99.90
64951;DHT22;51482;47.014;7.652;2023-02-01T01:21:57;2.10;99.90
64951;DHT22;51482;47.014;7.652;2023-02-01T01:24:23;2.30;99.90
64951;DHT22;51482;47.014;7.652;2023-02-01T01:26:48;2.40;99.90
64951;DHT22;51482;47.014;7.652;2023-02-01T01:29:14;1.80;99.90
64951;DHT22;51482;47.014;7.652;2023-02-01T01:31:39;2.20;99.90
64951;DHT22;51482;47.014;7.652;2023-02-01T01:34:05;2.00;99.90
64951;DHT22;51482;47.014;7.652;2023-02-01T01:36:30;1.50;99.90
64951;DHT22;51482;47.014;7.652;2023-02-01T01:38:56;1.50;99.90
64951;DHT22;51482;47.014;7.652;2023-02-01T01:41:25;1.60;99.90
64951;DHT22;51482;47.014;7.652;2023-02-01T01:43:58;2.10;99.90
64951;DHT22;51482;47.014;7.652;2023-02-01T01:46:32;2.00;99.90
64951;DHT22;51482;47.014;7.652;2023-02-01T01:51:37;1.70;99.90
64951;DHT22;51482;47.014;7.652;2023-02-01T01:54:17;1.10;99.90
64951;DHT22;51482;47.014;7.652;2023-02-01T01:56:47;1.70;99.90
64951;DHT22;51482;47.014;7.652;2023-02-01T01:59:14;1.60;99.90
64951;DHT22;51482;47.014;7.652;2023-02-01T02:01:40;1.50;99.90
64951;DHT22;51482;47.014;7.652;2023-02-01T02:04:05;1.60;99.90
64951;DHT22;51482;47.014;7.652;2023-02-01T02:06:45;1.60;99.90
64951;DHT22;51482;47.014;7.652;2023-02-01T02:09:14;1.60;99.90
64951;DHT22;51482;47.014;7.652;2023-02-01T02:11:40;1.10;99.90
64951;DHT22;51482;47.014;7.652;2023-02-01T02:14:09;0.90;99.90
64951;DHT22;51482;47.014;7.652;2023-02-01T02:22:50;1.20;99.90
64951;DHT22;51482;47.014;7.652;2023-02-01T02:43:38;0.60;99.90
64951;DHT22;51482;47.014;7.652;2023-02-01T02:46:34;1.20;99.90
64951;DHT22;51482;47.014;7.652;2023-02-01T02:49:25;0.60;99.90
64951;DHT22;51482;47.014;7.652;2023-02-01T02:51:58;1.00;99.90
64951;DHT22;51482;47.014;7.652;2023-02-01T02:54:47;1.20;99.90
64951;DHT22;51482;47.014;7.652;2023-02-01T02:57:29;1.20;99.90
64951;DHT22;51482;47.014;7.652;2023-02-01T03:00:18;1.20;99.90
64951;DHT22;51482;47.014;7.652;2023-02-01T03:03:03;0.50;99.90
64951;DHT22;51482;47.014;7.652;2023-02-01T03:05:48;0.10;99.90
64951;DHT22;51482;47.014;7.652;2023-02-01T03:08:28;1.00;99.90
64951;DHT22;51482;47.014;7.652;2023-02-01T03:13:27;0.90;99.90
64951;DHT22;51482;47.014;7.652;2023-02-01T03:15:59;0.80;99.90
64951;DHT22;51482;47.014;7.652;2023-02-01T03:18:44;0.60;99.90
64951;DHT22;51482;47.014;7.652;2023-02-01T03:21:16;0.60;99.90
64951;DHT22;51482;47.014;7.652;2023-02-01T03:23:44;0.70;99.90
64951;DHT22;51482;47.014;7.652;2023-02-01T03:26:14;0.10;99.90
64951;DHT22;51482;47.014;7.652;2023-02-01T03:28:48;0.60;99.90
64951;DHT22;51482;47.014;7.652;2023-02-01T03:31:15;0.60;99.90
64951;DHT22;51482;47.014;7.652;2023-02-01T03:33:41;0.10;99.90
64951;DHT22;51482;47.014;7.652;2023-02-01T03:36:31;-0.70;99.90
64951;DHT22;51482;47.014;7.652;2023-02-01T03:39:27;0.00;99.90
64951;DHT22;51482;47.014;7.652;2023-02-01T03:41:58;0.60;99.90
64951;DHT22;51482;47.014;7.652;2023-02-01T03:44:35;0.60;99.90
64951;DHT22;51482;47.014;7.652;2023-02-01T03:47:06;0.60;99.90
64951;DHT22;51482;47.014;7.652;2023-02-01T03:49:43;0.60;99.90
64951;DHT22;51482;47.014;7.652;2023-02-01T03:52:21;0.00;99.90
64951;DHT22;51482;47.014;7.652;2023-02-01T03:54:47;0.60;99.90
64951;DHT22;51482;47.014;7.652;2023-02-01T03:57:16;0.10;99.90
64951;DHT22;51482;47.014;7.652;2023-02-01T03:59:46;0.00;99.90
64951;DHT22;51482;47.014;7.652;2023-02-01T04:02:11;0.00;99.90
64951;DHT22;51482;47.014;7.652;2023-02-01T04:04:37;0.60;99.90
64951;DHT22;51482;47.014;7.652;2023-02-01T04:07:03;0.60;99.90
64951;DHT22;51482;47.014;7.652;2023-02-01T04:09:29;0.60;99.90
64951;DHT22;51482;47.014;7.652;2023-02-01T04:11:54;0.10;99.90
64951;DHT22;51482;47.014;7.652;2023-02-01T04:14:20;0.60;99.90
64951;DHT22;51482;47.014;7.652;2023-02-01T04:16:45;0.50;99.90
64951;DHT22;51482;47.014;7.652;2023-02-01T04:19:11;-0.10;99.90
64951;DHT22;51482;47.014;7.652;2023-02-01T04:21:37;-0.10;99.90
64951;DHT22;51482;47.014;7.652;2023-02-01T04:24:02;-0.50;99.90
64951;DHT22;51482;47.014;7.652;2023-02-01T04:26:28;0.00;99.90
64951;DHT22;51482;47.014;7.652;2023-02-01T04:28:53;0.50;99.90
64951;DHT22;51482;47.014;7.652;2023-02-01T04:31:19;0.60;99.90
64951;DHT22;51482;47.014;7.652;2023-02-01T04:33:52;0.50;99.90
64951;DHT22;51482;47.014;7.652;2023-02-01T04:36:18;0.00;99.90
64951;DHT22;51482;47.014;7.652;2023-02-01T04:38:47;0.10;99.90
64951;DHT22;51482;47.014;7.652;2023-02-01T04:41:12;0.50;99.90
64951;DHT22;51482;47.014;7.652;2023-02-01T04:43:38;0.50;99.90
64951;DHT22;51482;47.014;7.652;2023-02-01T04:46:03;0.40;99.90
64951;DHT22;51482;47.014;7.652;2023-02-01T04:48:30;-0.10;99.90
64951;DHT22;51482;47.014;7.652;2023-02-01T04:50:56;0.60;99.90
64951;DHT22;51482;47.014;7.652;2023-02-01T04:53:21;-0.10;99.90
64951;DHT22;51482;47.014;7.652;2023-02-01T04:55:48;0.50;99.90
64951;DHT22;51482;47.014;7.652;2023-02-01T04:58:14;-0.20;99.90
64951;DHT22;51482;47.014;7.652;2023-02-01T05:00:40;0.50;99.90
64951;DHT22;51482;47.014;7.652;2023-02-01T05:03:05;0.20;99.90
64951;DHT22;51482;47.014;7.652;2023-02-01T05:05:31;0.00;99.90
64951;DHT22;51482;47.014;7.652;2023-02-01T05:07:57;0.10;99.90
64951;DHT22;51482;47.014;7.652;2023-02-01T05:10:23;0.70;99.90
64951;DHT22;51482;47.014;7.652;2023-02-01T05:12:48;0.20;99.90
64951;DHT22;51482;47.014;7.652;2023-02-01T05:15:33;0.60;99.90
64951;DHT22;51482;47.014;7.652;2023-02-01T05:17:58;0.50;99.90
64951;DHT22;51482;47.014;7.652;2023-02-01T05:20:24;0.10;99.90
64951;DHT22;51482;47.014;7.652;2023-02-01T05:22:50;0.00;99.90
64951;DHT22;51482;47.014;7.652;2023-02-01T05:25:15;0.70;99.90
64951;DHT22;51482;47.014;7.652;2023-02-01T05:27:41;0.00;99.90
64951;DHT22;51482;47.014;7.652;2023-02-01T05:30:08;0.00;99.90
64951;DHT22;51482;47.014;7.652;2023-02-01T05:32:34;0.00;99.90
64951;DHT22;51482;47.014;7.652;2023-02-01T05:35:00;0.70;99.90
64951;DHT22;51482;47.014;7.652;2023-02-01T05:37:25;0.30;99.90
64951;DHT22;51482;47.014;7.652;2023-02-01T05:39:51;0.70;99.90
64951;DHT22;51482;47.014;7.652;2023-02-01T05:42:16;0.90;99.90
64951;DHT22;51482;47.014;7.652;2023-02-01T05:44:42;0.80;99.90
64951;DHT22;51482;47.014;7.652;2023-02-01T05:47:08;0.70;99.90
64951;DHT22;51482;47.014;7.652;2023-02-01T05:49:33;0.80;99.90
64951;DHT22;51482;47.014;7.652;2023-02-01T05:51:59;0.80;99.90
64951;DHT22;51482;47.014;7.652;2023-02-01T05:54:24;0.80;99.90
64951;DHT22;51482;47.014;7.652;2023-02-01T05:56:50;0.30;99.90
64951;DHT22;51482;47.014;7.652;2023-02-01T05:59:15;0.20;99.90
64951;DHT22;51482;47.014;7.652;2023-02-01T06:01:41;0.80;99.90
64951;DHT22;51482;47.014;7.652;2023-02-01T06:04:06;0.80;99.90
64951;DHT22;51482;47.014;7.652;2023-02-01T06:06:32;0.30;99.90
64951;DHT22;51482;47.014;7.652;2023-02-01T06:08:58;0.20;99.90
64951;DHT22;51482;47.014;7.652;2023-02-01T06:11:23;0.90;99.90
64951;DHT22;51482;47.014;7.652;2023-02-01T06:13:49;0.30;99.90
64951;DHT22;51482;47.014;7.652;2023-02-01T06:16:15;0.60;99.90
64951;DHT22;51482;47.014;7.652;2023-02-01T06:18:41;1.00;99.90
64951;DHT22;51482;47.014;7.652;2023-02-01T06:21:07;1.00;99.90
64951;DHT22;51482;47.014;7.652;2023-02-01T06:23:33;0.40;99.90
64951;DHT22;51482;47.014;7.652;2023-02-01T06:26:01;0.40;99.90
64951;DHT22;51482;47.014;7.652;2023-02-01T06:28:28;1.10;99.90
64951;DHT22;51482;47.014;7.652;2023-02-01T06:30:54;1.00;99.90
64951;DHT22;51482;47.014;7.652;2023-02-01T06:33:20;1.10;99.90
64951;DHT22;51482;47.014;7.652;2023-02-01T06:35:45;1.20;99.90
64951;DHT22;51482;47.014;7.652;2023-02-01T06:38:12;1.10;99.90
64951;DHT22;51482;47.014;7.652;2023-02-01T06:40:38;0.10;99.90
64951;DHT22;51482;47.014;7.652;2023-02-01T06:43:04;1.30;99.90
64951;DHT22;51482;47.014;7.652;2023-02-01T06:45:30;1.30;99.90
64951;DHT22;51482;47.014;7.652;2023-02-01T06:47:55;0.90;99.90
64951;DHT22;51482;47.014;7.652;2023-02-01T06:50:21;0.70;99.90
64951;DHT22;51482;47.014;7.652;2023-02-01T06:52:46;1.30;99.90
64951;DHT22;51482;47.014;7.652;2023-02-01T06:55:12;1.40;99.90
64951;DHT22;51482;47.014;7.652;2023-02-01T06:57:38;1.50;99.90
64951;DHT22;51482;47.014;7.652;2023-02-01T07:00:05;0.90;99.90
64951;DHT22;51482;47.014;7.652;2023-02-01T07:02:31;1.00;99.90
64951;DHT22;51482;47.014;7.652;2023-02-01T07:04:56;1.10;99.90
64951;DHT22;51482;47.014;7.652;2023-02-01T07:07:22;1.60;99.90
64951;DHT22;51482;47.014;7.652;2023-02-01T07:09:48;1.60;99.90
64951;DHT22;51482;47.014;7.652;2023-02-01T07:12:14;1.70;99.90
64951;DHT22;51482;47.014;7.652;2023-02-01T07:14:40;1.10;99.90
64951;DHT22;51482;47.014;7.652;2023-02-01T07:17:05;2.10;99.90
64951;DHT22;51482;47.014;7.652;2023-02-01T07:19:31;2.20;99.90
64951;DHT22;51482;47.014;7.652;2023-02-01T07:21:56;2.00;99.90
64951;DHT22;51482;47.014;7.652;2023-02-01T07:24:22;2.00;99.90
64951;DHT22;51482;47.014;7.652;2023-02-01T07:26:48;1.90;99.90
64951;DHT22;51482;47.014;7.652;2023-02-01T07:29:16;1.60;99.90
64951;DHT22;51482;47.014;7.652;2023-02-01T07:31:42;1.30;99.90
64951;DHT22;51482;47.014;7.652;2023-02-01T07:34:08;1.60;99.90
64951;DHT22;51482;47.014;7.652;2023-02-01T07:36:33;1.40;99.90
64951;DHT22;51482;47.014;7.652;2023-02-01T07:38:59;1.50;99.90
64951;DHT22;51482;47.014;7.652;2023-02-01T07:41:25;1.90;99.90
64951;DHT22;51482;47.014;7.652;2023-02-01T07:43:54;2.10;99.90
64951;DHT22;51482;47.014;7.652;2023-02-01T07:46:19;2.10;99.90
64951;DHT22;51482;47.014;7.652;2023-02-01T07:48:45;2.20;99.90
64951;DHT22;51482;47.014;7.652;2023-02-01T07:51:14;1.10;99.90
64951;DHT22;51482;47.014;7.652;2023-02-01T07:53:41;1.70;99.90
64951;DHT22;51482;47.014;7.652;2023-02-01T07:56:18;1.10;99.90
64951;DHT22;51482;47.014;7.652;2023-02-01T07:58:50;2.50;99.90
64951;DHT22;51482;47.014;7.652;2023-02-01T08:01:18;1.90;99.90
64951;DHT22;51482;47.014;7.652;2023-02-01T08:04:00;2.50;99.90
64951;DHT22;51482;47.014;7.652;2023-02-01T08:06:27;2.50;99.90
64951;DHT22;51482;47.014;7.652;2023-02-01T08:08:54;2.10;99.90
64951;DHT22;51482;47.014;7.652;2023-02-01T08:11:21;2.70;99.90
64951;DHT22;51482;47.014;7.652;2023-02-01T08:13:47;2.20;99.90
64951;DHT22;51482;47.014;7.652;2023-02-01T08:16:14;2.70;99.90
64951;DHT22;51482;47.014;7.652;2023-02-01T08:18:41;2.70;99.90
64951;DHT22;51482;47.014;7.652;2023-02-01T08:21:10;2.70;99.90
64951;DHT22;51482;47.014;7.652;2023-02-01T08:23:39;2.50;99.90
64951;DHT22;51482;47.014;7.652;2023-02-01T08:28:31;1.80;99.90
64951;DHT22;51482;47.014;7.652;2023-02-01T08:30:57;2.50;99.90
64951;DHT22;51482;47.014;7.652;2023-02-01T08:33:22;2.70;99.90
64951;DHT22;51482;47.014;7.652;2023-02-01T08:35:48;3.10;99.90
64951;DHT22;51482;47.014;7.652;2023-02-01T08:38:13;2.40;99.90
64951;DHT22;51482;47.014;7.652;2023-02-01T08:40:39;3.50;99.90
64951;DHT22;51482;47.014;7.652;2023-02-01T08:43:06;3.10;99.90
64951;DHT22;51482;47.014;7.652;2023-02-01T08:45:32;3.50;99.90
64951;DHT22;51482;47.014;7.652;2023-02-01T08:47:59;2.60;99.90
64951;DHT22;51482;47.014;7.652;2023-02-01T08:50:25;2.90;99.90
64951;DHT22;51482;47.014;7.652;2023-02-01T08:52:51;3.10;99.90
64951;DHT22;51482;47.014;7.652;2023-02-01T08:55:17;3.90;99.90
64951;DHT22;51482;47.014;7.652;2023-02-01T08:57:43;3.80;99.90
64951;DHT22;51482;47.014;7.652;2023-02-01T09:00:12;3.50;99.90
64951;DHT22;51482;47.014;7.652;2023-02-01T09:02:38;3.20;99.90
64951;DHT22;51482;47.014;7.652;2023-02-01T09:05:04;3.90;99.90
64951;DHT22;51482;47.014;7.652;2023-02-01T09:07:30;3.50;99.90
64951;DHT22;51482;47.014;7.652;2023-02-01T09:09:56;3.60;99.90
64951;DHT22;51482;47.014;7.652;2023-02-01T09:12:25;4.00;99.90
64951;DHT22;51482;47.014;7.652;2023-02-01T09:14:50;4.10;99.90
64951;DHT22;51482;47.014;7.652;2023-02-01T09:17:16;3.80;99.90
64951;DHT22;51482;47.014;7.652;2023-02-01T09:19:41;3.50;99.90
64951;DHT22;51482;47.014;7.652;2023-02-01T09:22:07;3.90;99.90
64951;DHT22;51482;47.014;7.652;2023-02-01T09:24:33;4.40;99.90
64951;DHT22;51482;47.014;7.652;2023-02-01T09:26:58;4.30;99.90
64951;DHT22;51482;47.014;7.652;2023-02-01T09:29:23;3.90;99.90
64951;DHT22;51482;47.014;7.652;2023-02-01T09:31:49;4.50;99.90
64951;DHT22;51482;47.014;7.652;2023-02-01T09:34:15;4.80;99.90
64951;DHT22;51482;47.014;7.652;2023-02-01T09:36:41;3.50;99.90
64951;DHT22;51482;47.014;7.652;2023-02-01T09:39:06;4.70;99.90
64951;DHT22;51482;47.014;7.652;2023-02-01T09:41:54;4.50;99.90
64951;DHT22;51482;47.014;7.652;2023-02-01T09:47:17;5.30;99.90
64951;DHT22;51482;47.014;7.652;2023-02-01T09:50:13;5.60;99.90
64951;DHT22;51482;47.014;7.652;2023-02-01T09:52:51;5.40;99.90
64951;DHT22;51482;47.014;7.652;2023-02-01T09:55:30;5.30;99.90
64951;DHT22;51482;47.014;7.652;2023-02-01T09:58:05;5.90;99.90
64951;DHT22;51482;47.014;7.652;2023-02-01T10:00:36;5.40;99.90
64951;DHT22;51482;47.014;7.652;2023-02-01T10:03:03;5.80;99.90
64951;DHT22;51482;47.014;7.652;2023-02-01T10:11:28;5.20;99.90
64951;DHT22;51482;47.014;7.652;2023-02-01T10:17:03;5.10;99.90
64951;DHT22;51482;47.014;7.652;2023-02-01T10:19:54;5.40;99.90
64951;DHT22;51482;47.014;7.652;2023-02-01T10:22:41;5.70;99.90
64951;DHT22;51482;47.014;7.652;2023-02-01T10:25:23;5.00;99.90
64951;DHT22;51482;47.014;7.652;2023-02-01T10:27:51;5.30;99.90
64951;DHT22;51482;47.014;7.652;2023-02-01T10:30:22;4.70;99.90
64951;DHT22;51482;47.014;7.652;2023-02-01T10:33:30;6.10;99.90
64951;DHT22;51482;47.014;7.652;2023-02-01T10:36:15;6.20;99.90
64951;DHT22;51482;47.014;7.652;2023-02-01T10:38:43;6.20;99.90
64951;DHT22;51482;47.014;7.652;2023-02-01T10:41:18;6.30;99.90
64951;DHT22;51482;47.014;7.652;2023-02-01T10:43:48;6.80;99.90
64951;DHT22;51482;47.014;7.652;2023-02-01T10:46:16;7.20;99.90
64951;DHT22;51482;47.014;7.652;2023-02-01T10:48:42;7.00;99.90
64951;DHT22;51482;47.014;7.652;2023-02-01T10:51:27;7.60;99.90
64951;DHT22;51482;47.014;7.652;2023-02-01T10:53:58;8.20;99.90
64951;DHT22;51482;47.014;7.652;2023-02-01T10:56:29;8.30;99.90
64951;DHT22;51482;47.014;7.652;2023-02-01T10:59:06;8.90;99.90
64951;DHT22;51482;47.014;7.652;2023-02-01T11:01:39;9.30;99.90
64951;DHT22;51482;47.014;7.652;2023-02-01T11:04:25;9.70;99.90
64951;DHT22;51482;47.014;7.652;2023-02-01T11:07:19;11.20;99.90
64951;DHT22;51482;47.014;7.652;2023-02-01T11:09:51;10.90;99.90
64951;DHT22;51482;47.014;7.652;2023-02-01T11:12:29;10.30;99.90
64951;DHT22;51482;47.014;7.652;2023-02-01T11:15:14;9.90;99.90
64951;DHT22;51482;47.014;7.652;2023-02-01T11:17:45;9.70;99.90
64951;DHT22;51482;47.014;7.652;2023-02-01T11:20:16;9.90;99.90
64951;DHT22;51482;47.014;7.652;2023-02-01T11:22:55;10.40;99.90
64951;DHT22;51482;47.014;7.652;2023-02-01T11:25:22;9.60;99.90
64951;DHT22;51482;47.014;7.652;2023-02-01T11:27:50;9.50;99.90
64951;DHT22;51482;47.014;7.652;2023-02-01T11:30:35;9.30;99.90
64951;DHT22;51482;47.014;7.652;2023-02-01T11:33:03;9.20;99.90
64951;DHT22;51482;47.014;7.652;2023-02-01T11:35:30;10.00;99.90
64951;DHT22;51482;47.014;7.652;2023-02-01T11:37:58;10.60;99.90
64951;DHT22;51482;47.014;7.652;2023-02-01T11:40:42;11.30;99.90
64951;DHT22;51482;47.014;7.652;2023-02-01T11:45:40;12.10;98.70
64951;DHT22;51482;47.014;7.652;2023-02-01T11:48:14;11.90;95.90
64951;DHT22;51482;47.014;7.652;2023-02-01T11:55:56;13.80;92.40
64951;DHT22;51482;47.014;7.652;2023-02-01T12:05:07;13.30;89.30
64951;DHT22;51482;47.014;7.652;2023-02-01T12:07:21;13.40;89.80
64951;DHT22;51482;47.014;7.652;2023-02-01T12:13:14;13.90;80.70
64951;DHT22;51482;47.014;7.652;2023-02-01T12:18:35;13.60;79.80
64951;DHT22;51482;47.014;7.652;2023-02-01T12:21:20;13.40;82.40
64951;DHT22;51482;47.014;7.652;2023-02-01T12:32:58;12.00;86.60
64951;DHT22;51482;47.014;7.652;2023-02-01T12:36:18;11.60;88.70
64951;DHT22;51482;47.014;7.652;2023-02-01T12:38:24;11.00;88.70
64951;DHT22;51482;47.014;7.652;2023-02-01T12:41:14;11.40;91.70
64951;DHT22;51482;47.014;7.652;2023-02-01T12:43:52;11.90;91.50
64951;DHT22;51482;47.014;7.652;2023-02-01T12:46:46;12.40;90.40
64951;DHT22;51482;47.014;7.652;2023-02-01T12:49:23;12.00;87.40
64951;DHT22;51482;47.014;7.652;2023-02-01T12:51:57;12.20;90.10
64951;DHT22;51482;47.014;7.652;2023-02-01T12:54:39;12.10;89.00
64951;DHT22;51482;47.014;7.652;2023-02-01T12:57:17;12.30;86.90
64951;DHT22;51482;47.014;7.652;2023-02-01T12:59:56;12.30;90.20
64951;DHT22;51482;47.014;7.652;2023-02-01T13:02:42;12.50;89.50
64951;DHT22;51482;47.014;7.652;2023-02-01T13:07:46;12.70;82.30
64951;DHT22;51482;47.014;7.652;2023-02-01T13:10:38;11.90;86.30
64951;DHT22;51482;47.014;7.652;2023-02-01T13:16:16;10.70;90.40
64951;DHT22;51482;47.014;7.652;2023-02-01T13:18:47;11.20;90.70
64951;DHT22;51482;47.014;7.652;2023-02-01T13:21:35;11.70;90.80
64951;DHT22;51482;47.014;7.652;2023-02-01T13:24:03;11.30;90.00
64951;DHT22;51482;47.014;7.652;2023-02-01T13:26:29;10.80;91.80
64951;DHT22;51482;47.014;7.652;2023-02-01T13:29:04;10.40;92.80
64951;DHT22;51482;47.014;7.652;2023-02-01T13:31:47;9.80;94.60
64951;DHT22;51482;47.014;7.652;2023-02-01T13:42:53;9.20;99.80
64951;DHT22;51482;47.014;7.652;2023-02-01T13:47:49;10.30;98.50
64951;DHT22;51482;47.014;7.652;2023-02-01T13:50:30;10.80;96.00
64951;DHT22;51482;47.014;7.652;2023-02-01T13:55:41;12.10;92.30
64951;DHT22;51482;47.014;7.652;2023-02-01T13:58:17;12.00;92.30
64951;DHT22;51482;47.014;7.652;2023-02-01T14:00:44;12.70;90.70
64951;DHT22;51482;47.014;7.652;2023-02-01T14:03:16;13.00;89.80
64951;DHT22;51482;47.014;7.652;2023-02-01T14:08:13;13.20;85.90
64951;DHT22;51482;47.014;7.652;2023-02-01T14:13:35;14.30;95.40
64951;DHT22;51482;47.014;7.652;2023-02-01T14:21:32;14.60;96.50
64951;DHT22;51482;47.014;7.652;2023-02-01T14:24:15;14.90;90.70
64951;DHT22;51482;47.014;7.652;2023-02-01T14:47:41;11.70;85.10
64951;DHT22;51482;47.014;7.652;2023-02-01T14:52:36;11.00;86.40
64951;DHT22;51482;47.014;7.652;2023-02-01T14:55:12;11.30;88.90
64951;DHT22;51482;47.014;7.652;2023-02-01T14:57:40;10.00;86.20
64951;DHT22;51482;47.014;7.652;2023-02-01T15:00:16;9.80;88.10
64951;DHT22;51482;47.014;7.652;2023-02-01T15:02:43;9.50;90.00
64951;DHT22;51482;47.014;7.652;2023-02-01T15:05:32;9.30;90.30
64951;DHT22;51482;47.014;7.652;2023-02-01T15:08:05;9.00;90.40
64951;DHT22;51482;47.014;7.652;2023-02-01T15:10:41;8.70;91.70
64951;DHT22;51482;47.014;7.652;2023-02-01T15:13:18;9.30;92.50
64951;DHT22;51482;47.014;7.652;2023-02-01T15:15:43;8.60;93.30
64951;DHT22;51482;47.014;7.652;2023-02-01T15:18:16;8.50;93.30
64951;DHT22;51482;47.014;7.652;2023-02-01T15:20:42;8.60;94.20
64951;DHT22;51482;47.014;7.652;2023-02-01T15:23:20;8.50;93.50
64951;DHT22;51482;47.014;7.652;2023-02-01T15:25:46;8.70;94.20
64951;DHT22;51482;47.014;7.652;2023-02-01T15:28:14;8.50;94.40
64951;DHT22;51482;47.014;7.652;2023-02-01T15:30:39;8.40;93.30
64951;DHT22;51482;47.014;7.652;2023-02-01T15:33:16;8.40;94.00
64951;DHT22;51482;47.014;7.652;2023-02-01T15:35:45;8.40;94.80
64951;DHT22;51482;47.014;7.652;2023-02-01T15:41:15;8.20;95.00
64951;DHT22;51482;47.014;7.652;2023-02-01T15:46:17;7.90;94.80
64951;DHT22;51482;47.014;7.652;2023-02-01T15:48:45;7.70;95.20
64951;DHT22;51482;47.014;7.652;2023-02-01T15:51:13;8.30;95.60
64951;DHT22;51482;47.014;7.652;2023-02-01T15:53:44;7.80;96.00
64951;DHT22;51482;47.014;7.652;2023-02-01T15:56:10;8.20;96.60
64951;DHT22;51482;47.014;7.652;2023-02-01T15:58:36;7.70;96.20
64951;DHT22;51482;47.014;7.652;2023-02-01T16:01:04;7.70;97.10
64951;DHT22;51482;47.014;7.652;2023-02-01T16:03:40;7.60;97.40
64951;DHT22;51482;47.014;7.652;2023-02-01T16:08:54;7.80;97.70
64951;DHT22;51482;47.014;7.652;2023-02-01T16:11:26;7.60;97.80
64951;DHT22;51482;47.014;7.652;2023-02-01T16:13:53;7.60;98.80
64951;DHT22;51482;47.014;7.652;2023-02-01T16:16:19;7.60;97.90
64951;DHT22;51482;47.014;7.652;2023-02-01T16:18:44;8.20;97.90
64951;DHT22;51482;47.014;7.652;2023-02-01T16:21:11;7.40;97.70
64951;DHT22;51482;47.014;7.652;2023-02-01T16:23:37;7.70;98.80
64951;DHT22;51482;47.014;7.652;2023-02-01T16:26:03;7.10;98.90
64951;DHT22;51482;47.014;7.652;2023-02-01T16:28:29;7.10;99.40
64951;DHT22;51482;47.014;7.652;2023-02-01T16:30:55;7.10;99.70
64951;DHT22;51482;47.014;7.652;2023-02-01T16:33:22;7.00;99.60
64951;DHT22;51482;47.014;7.652;2023-02-01T16:35:50;7.20;99.90
64951;DHT22;51482;47.014;7.652;2023-02-01T16:38:17;6.90;99.90
64951;DHT22;51482;47.014;7.652;2023-02-01T16:40:45;6.90;99.90
64951;DHT22;51482;47.014;7.652;2023-02-01T16:43:24;6.90;99.90
64951;DHT22;51482;47.014;7.652;2023-02-01T16:45:53;6.80;99.90
64951;DHT22;51482;47.014;7.652;2023-02-01T16:48:31;6.80;99.90
64951;DHT22;51482;47.014;7.652;2023-02-01T16:51:04;6.70;99.90
64951;DHT22;51482;47.014;7.652;2023-02-01T16:53:33;6.60;99.90
64951;DHT22;51482;47.014;7.652;2023-02-01T16:55:58;6.30;99.90
64951;DHT22;51482;47.014;7.652;2023-02-01T16:58:25;6.40;99.90
64951;DHT22;51482;47.014;7.652;2023-02-01T17:00:51;6.30;99.90
64951;DHT22;51482;47.014;7.652;2023-02-01T17:03:18;6.80;99.90
64951;DHT22;51482;47.014;7.652;2023-02-01T17:05:47;6.80;99.90
64951;DHT22;51482;47.014;7.652;2023-02-01T17:08:17;5.60;99.90
64951;DHT22;51482;47.014;7.652;2023-02-01T17:10:44;6.10;99.90
64951;DHT22;51482;47.014;7.652;2023-02-01T17:13:15;6.20;99.90
64951;DHT22;51482;47.014;7.652;2023-02-01T17:15:50;6.30;99.90
64951;DHT22;51482;47.014;7.652;2023-02-01T17:18:18;6.30;99.90
64951;DHT22;51482;47.014;7.652;2023-02-01T17:20:44;6.30;99.90
64951;DHT22;51482;47.014;7.652;2023-02-01T17:23:11;7.00;99.90
64951;DHT22;51482;47.014;7.652;2023-02-01T17:25:37;6.10;99.90
64951;DHT22;51482;47.014;7.652;2023-02-01T17:28:02;6.50;99.90
64951;DHT22;51482;47.014;7.652;2023-02-01T17:30:28;6.50;99.90
64951;DHT22;51482;47.014;7.652;2023-02-01T17:32:54;6.40;99.90
64951;DHT22;51482;47.014;7.652;2023-02-01T17:35:24;6.40;99.90
64951;DHT22;51482;47.014;7.652;2023-02-01T17:37:51;6.40;99.90
64951;DHT22;51482;47.014;7.652;2023-02-01T17:40:17;6.90;99.90
64951;DHT22;51482;47.014;7.652;2023-02-01T17:42:43;6.30;99.90
64951;DHT22;51482;47.014;7.652;2023-02-01T17:48:01;6.30;99.90
64951;DHT22;51482;47.014;7.652;2023-02-01T17:50:30;6.30;99.90
64951;DHT22;51482;47.014;7.652;2023-02-01T17:52:56;6.70;99.90
64951;DHT22;51482;47.014;7.652;2023-02-01T17:55:24;6.90;99.90
64951;DHT22;51482;47.014;7.652;2023-02-01T17:57:50;6.80;99.90
64951;DHT22;51482;47.014;7.652;2023-02-01T18:00:16;6.30;99.90
64951;DHT22;51482;47.014;7.652;2023-02-01T18:02:42;6.30;99.90
64951;DHT22;51482;47.014;7.652;2023-02-01T18:07:46;6.10;99.90
64951;DHT22;51482;47.014;7.652;2023-02-01T18:10:11;6.70;99.90
64951;DHT22;51482;47.014;7.652;2023-02-01T18:12:37;6.20;99.90
64951;DHT22;51482;47.014;7.652;2023-02-01T18:15:18;6.20;99.90
64951;DHT22;51482;47.014;7.652;2023-02-01T18:17:44;6.20;99.90
64951;DHT22;51482;47.014;7.652;2023-02-01T18:20:15;6.70;99.90
64951;DHT22;51482;47.014;7.652;2023-02-01T18:22:42;6.00;99.90